sensor_id;sensor_type;location;lat;lon;timestamp;P1;durP1;ratioP1;P2;durP2;ratioP2
66270;SDS011;53063;39.614;8.814;2023-08-12T00:00:26;4.43;;;1.67;;
66270;SDS011;53063;39.614;8.814;2023-08-12T00:02:52;3.65;;;1.20;;
66270;SDS011;53063;39.614;8.814;2023-08-12T00:05:18;4.22;;;1.67;;
66270;SDS011;53063;39.614;8.814;2023-08-12T00:07:44;4.30;;;1.67;;
66270;SDS011;53063;39.614;8.814;2023-08-12T00:10:11;3.10;;;1.20;;
66270;SDS011;53063;39.614;8.814;2023-08-12T00:12:38;3.38;;;2.03;;
66270;SDS011;53063;39.614;8.814;2023-08-12T00:15:04;5.60;;;1.60;;
66270;SDS011;53063;39.614;8.814;2023-08-12T00:17:32;4.57;;;1.55;;
66270;SDS011;53063;39.614;8.814;2023-08-12T00:20:00;5.78;;;1.77;;
66270;SDS011;53063;39.614;8.814;2023-08-12T00:22:25;2.53;;;1.20;;
66270;SDS011;53063;39.614;8.814;2023-08-12T00:24:52;4.75;;;1.58;;
66270;SDS011;53063;39.614;8.814;2023-08-12T00:27:18;3.65;;;1.33;;
66270;SDS011;53063;39.614;8.814;2023-08-12T00:29:44;3.50;;;1.45;;
66270;SDS011;53063;39.614;8.814;2023-08-12T00:32:10;3.22;;;1.70;;
66270;SDS011;53063;39.614;8.814;2023-08-12T00:34:36;4.10;;;1.48;;
66270;SDS011;53063;39.614;8.814;2023-08-12T00:37:02;3.30;;;1.50;;
66270;SDS011;53063;39.614;8.814;2023-08-12T00:39:28;2.78;;;1.17;;
66270;SDS011;53063;39.614;8.814;2023-08-12T00:41:54;6.78;;;1.75;;
66270;SDS011;53063;39.614;8.814;2023-08-12T00:44:20;5.60;;;2.22;;
66270;SDS011;53063;39.614;8.814;2023-08-12T00:46:46;4.35;;;1.33;;
66270;SDS011;53063;39.614;8.814;2023-08-12T00:49:13;4.82;;;1.70;;
66270;SDS011;53063;39.614;8.814;2023-08-12T00:51:42;5.70;;;1.67;;
66270;SDS011;53063;39.614;8.814;2023-08-12T00:54:12;9.68;;;1.90;;
66270;SDS011;53063;39.614;8.814;2023-08-12T00:56:40;2.65;;;1.50;;
66270;SDS011;53063;39.614;8.814;2023-08-12T00:59:07;5.68;;;1.65;;
66270;SDS011;53063;39.614;8.814;2023-08-12T01:01:34;3.50;;;1.40;;
66270;SDS011;53063;39.614;8.814;2023-08-12T01:04:04;3.10;;;1.50;;
66270;SDS011;53063;39.614;8.814;2023-08-12T01:06:30;4.93;;;1.60;;
66270;SDS011;53063;39.614;8.814;2023-08-12T01:08:56;3.58;;;1.63;;
66270;SDS011;53063;39.614;8.814;2023-08-12T01:11:26;6.75;;;1.65;;
66270;SDS011;53063;39.614;8.814;2023-08-12T01:16:53;4.68;;;1.30;;
66270;SDS011;53063;39.614;8.814;2023-08-12T01:19:37;2.72;;;1.13;;
66270;SDS011;53063;39.614;8.814;2023-08-12T01:22:06;4.63;;;1.67;;
66270;SDS011;53063;39.614;8.814;2023-08-12T01:24:35;4.55;;;1.50;;
66270;SDS011;53063;39.614;8.814;2023-08-12T01:27:04;4.10;;;1.80;;
66270;SDS011;53063;39.614;8.814;2023-08-12T01:29:32;5.15;;;1.45;;
66270;SDS011;53063;39.614;8.814;2023-08-12T01:32:14;5.40;;;1.40;;
66270;SDS011;53063;39.614;8.814;2023-08-12T01:35:01;4.03;;;1.30;;
66270;SDS011;53063;39.614;8.814;2023-08-12T01:37:32;5.45;;;1.63;;
66270;SDS011;53063;39.614;8.814;2023-08-12T01:40:01;4.65;;;1.50;;
66270;SDS011;53063;39.614;8.814;2023-08-12T01:42:34;5.50;;;2.13;;
66270;SDS011;53063;39.614;8.814;2023-08-12T01:45:01;4.45;;;1.60;;
66270;SDS011;53063;39.614;8.814;2023-08-12T01:47:28;7.28;;;1.63;;
66270;SDS011;53063;39.614;8.814;2023-08-12T01:49:54;3.78;;;1.38;;
66270;SDS011;53063;39.614;8.814;2023-08-12T01:52:22;7.95;;;2.10;;
66270;SDS011;53063;39.614;8.814;2023-08-12T01:54:48;9.27;;;2.80;;
66270;SDS011;53063;39.614;8.814;2023-08-12T01:57:15;8.25;;;2.80;;
66270;SDS011;53063;39.614;8.814;2023-08-12T01:59:41;3.70;;;1.50;;
66270;SDS011;53063;39.614;8.814;2023-08-12T02:02:09;3.17;;;1.60;;
66270;SDS011;53063;39.614;8.814;2023-08-12T02:04:36;5.13;;;1.60;;
66270;SDS011;53063;39.614;8.814;2023-08-12T02:07:03;2.88;;;1.58;;
66270;SDS011;53063;39.614;8.814;2023-08-12T02:09:29;4.38;;;1.48;;
66270;SDS011;53063;39.614;8.814;2023-08-12T02:11:56;5.80;;;1.95;;
66270;SDS011;53063;39.614;8.814;2023-08-12T02:14:22;4.13;;;1.58;;
66270;SDS011;53063;39.614;8.814;2023-08-12T02:16:48;4.95;;;1.40;;
66270;SDS011;53063;39.614;8.814;2023-08-12T02:19:14;5.13;;;1.63;;
66270;SDS011;53063;39.614;8.814;2023-08-12T02:21:41;4.35;;;1.63;;
66270;SDS011;53063;39.614;8.814;2023-08-12T02:24:08;5.05;;;1.50;;
66270;SDS011;53063;39.614;8.814;2023-08-12T02:26:36;4.25;;;1.58;;
66270;SDS011;53063;39.614;8.814;2023-08-12T02:29:03;2.88;;;1.50;;
66270;SDS011;53063;39.614;8.814;2023-08-12T02:31:29;3.63;;;1.50;;
66270;SDS011;53063;39.614;8.814;2023-08-12T02:33:55;7.10;;;2.22;;
66270;SDS011;53063;39.614;8.814;2023-08-12T02:36:23;5.45;;;1.95;;
66270;SDS011;53063;39.614;8.814;2023-08-12T02:38:50;6.30;;;1.73;;
66270;SDS011;53063;39.614;8.814;2023-08-12T02:41:16;3.75;;;1.85;;
66270;SDS011;53063;39.614;8.814;2023-08-12T02:43:42;5.32;;;1.90;;
66270;SDS011;53063;39.614;8.814;2023-08-12T02:46:08;3.22;;;1.80;;
66270;SDS011;53063;39.614;8.814;2023-08-12T02:48:35;4.88;;;1.65;;
66270;SDS011;53063;39.614;8.814;2023-08-12T02:51:01;5.65;;;1.67;;
66270;SDS011;53063;39.614;8.814;2023-08-12T02:53:27;5.60;;;1.52;;
66270;SDS011;53063;39.614;8.814;2023-08-12T02:55:53;3.63;;;1.50;;
66270;SDS011;53063;39.614;8.814;2023-08-12T02:58:19;5.60;;;1.58;;
66270;SDS011;53063;39.614;8.814;2023-08-12T03:00:45;4.20;;;1.63;;
66270;SDS011;53063;39.614;8.814;2023-08-12T03:03:11;4.28;;;1.88;;
66270;SDS011;53063;39.614;8.814;2023-08-12T03:05:37;5.00;;;1.73;;
66270;SDS011;53063;39.614;8.814;2023-08-12T03:08:04;2.95;;;1.63;;
66270;SDS011;53063;39.614;8.814;2023-08-12T03:10:33;6.88;;;1.70;;
66270;SDS011;53063;39.614;8.814;2023-08-12T03:12:59;3.95;;;1.92;;
66270;SDS011;53063;39.614;8.814;2023-08-12T03:15:25;8.00;;;2.08;;
66270;SDS011;53063;39.614;8.814;2023-08-12T03:17:51;5.45;;;1.98;;
66270;SDS011;53063;39.614;8.814;2023-08-12T03:20:17;4.95;;;1.75;;
66270;SDS011;53063;39.614;8.814;2023-08-12T03:22:44;3.45;;;1.73;;
66270;SDS011;53063;39.614;8.814;2023-08-12T03:25:10;4.45;;;1.77;;
66270;SDS011;53063;39.614;8.814;2023-08-12T03:27:36;4.82;;;1.92;;
66270;SDS011;53063;39.614;8.814;2023-08-12T03:30:03;5.57;;;1.45;;
66270;SDS011;53063;39.614;8.814;2023-08-12T03:32:30;5.85;;;1.63;;
66270;SDS011;53063;39.614;8.814;2023-08-12T03:34:56;3.30;;;1.63;;
66270;SDS011;53063;39.614;8.814;2023-08-12T03:37:22;5.25;;;1.98;;
66270;SDS011;53063;39.614;8.814;2023-08-12T03:39:51;4.70;;;2.00;;
66270;SDS011;53063;39.614;8.814;2023-08-12T03:42:17;4.03;;;1.73;;
66270;SDS011;53063;39.614;8.814;2023-08-12T03:44:44;4.88;;;1.70;;
66270;SDS011;53063;39.614;8.814;2023-08-12T03:47:10;5.22;;;1.88;;
66270;SDS011;53063;39.614;8.814;2023-08-12T03:49:36;4.90;;;1.80;;
66270;SDS011;53063;39.614;8.814;2023-08-12T03:52:03;5.47;;;1.80;;
66270;SDS011;53063;39.614;8.814;2023-08-12T03:54:32;4.72;;;1.85;;
66270;SDS011;53063;39.614;8.814;2023-08-12T03:56:59;2.85;;;1.70;;
66270;SDS011;53063;39.614;8.814;2023-08-12T03:59:27;4.88;;;1.40;;
66270;SDS011;53063;39.614;8.814;2023-08-12T04:01:53;5.38;;;1.90;;
66270;SDS011;53063;39.614;8.814;2023-08-12T04:04:19;4.90;;;1.73;;
66270;SDS011;53063;39.614;8.814;2023-08-12T04:06:44;7.38;;;2.00;;
66270;SDS011;53063;39.614;8.814;2023-08-12T04:09:15;5.63;;;2.28;;
66270;SDS011;53063;39.614;8.814;2023-08-12T04:11:41;7.57;;;1.95;;
66270;SDS011;53063;39.614;8.814;2023-08-12T04:14:07;3.88;;;1.90;;
66270;SDS011;53063;39.614;8.814;2023-08-12T04:16:33;3.33;;;1.90;;
66270;SDS011;53063;39.614;8.814;2023-08-12T04:18:59;4.82;;;2.17;;
66270;SDS011;53063;39.614;8.814;2023-08-12T04:21:25;7.25;;;2.05;;
66270;SDS011;53063;39.614;8.814;2023-08-12T04:23:51;3.67;;;1.63;;
66270;SDS011;53063;39.614;8.814;2023-08-12T04:26:17;4.68;;;1.70;;
66270;SDS011;53063;39.614;8.814;2023-08-12T04:28:43;4.72;;;1.60;;
66270;SDS011;53063;39.614;8.814;2023-08-12T04:31:09;5.63;;;1.75;;
66270;SDS011;53063;39.614;8.814;2023-08-12T04:33:38;4.63;;;1.80;;
66270;SDS011;53063;39.614;8.814;2023-08-12T04:36:04;2.92;;;1.50;;
66270;SDS011;53063;39.614;8.814;2023-08-12T04:38:31;8.75;;;1.88;;
66270;SDS011;53063;39.614;8.814;2023-08-12T04:40:59;5.45;;;2.35;;
66270;SDS011;53063;39.614;8.814;2023-08-12T04:43:26;6.28;;;2.00;;
66270;SDS011;53063;39.614;8.814;2023-08-12T04:45:52;9.57;;;2.30;;
66270;SDS011;53063;39.614;8.814;2023-08-12T04:48:19;6.57;;;2.10;;
66270;SDS011;53063;39.614;8.814;2023-08-12T04:50:45;5.30;;;2.28;;
66270;SDS011;53063;39.614;8.814;2023-08-12T04:53:11;6.25;;;2.70;;
66270;SDS011;53063;39.614;8.814;2023-08-12T04:55:36;4.70;;;2.20;;
66270;SDS011;53063;39.614;8.814;2023-08-12T04:58:04;7.07;;;2.60;;
66270;SDS011;53063;39.614;8.814;2023-08-12T05:00:30;9.63;;;2.30;;
66270;SDS011;53063;39.614;8.814;2023-08-12T05:02:58;7.28;;;2.38;;
66270;SDS011;53063;39.614;8.814;2023-08-12T05:05:25;6.00;;;2.30;;
66270;SDS011;53063;39.614;8.814;2023-08-12T05:07:52;7.13;;;2.42;;
66270;SDS011;53063;39.614;8.814;2023-08-12T05:10:19;12.18;;;2.28;;
66270;SDS011;53063;39.614;8.814;2023-08-12T05:12:45;10.05;;;3.25;;
66270;SDS011;53063;39.614;8.814;2023-08-12T05:15:13;7.13;;;2.47;;
66270;SDS011;53063;39.614;8.814;2023-08-12T05:17:39;5.40;;;3.10;;
66270;SDS011;53063;39.614;8.814;2023-08-12T05:20:07;6.38;;;3.70;;
66270;SDS011;53063;39.614;8.814;2023-08-12T05:22:34;10.13;;;4.93;;
66270;SDS011;53063;39.614;8.814;2023-08-12T05:24:59;9.35;;;2.90;;
66270;SDS011;53063;39.614;8.814;2023-08-12T05:27:25;11.32;;;2.92;;
66270;SDS011;53063;39.614;8.814;2023-08-12T05:29:51;9.40;;;2.80;;
66270;SDS011;53063;39.614;8.814;2023-08-12T05:32:17;8.50;;;2.42;;
66270;SDS011;53063;39.614;8.814;2023-08-12T05:34:43;6.43;;;2.42;;
66270;SDS011;53063;39.614;8.814;2023-08-12T05:37:09;12.02;;;3.20;;
66270;SDS011;53063;39.614;8.814;2023-08-12T05:39:35;10.45;;;3.20;;
66270;SDS011;53063;39.614;8.814;2023-08-12T05:42:01;9.10;;;2.70;;
66270;SDS011;53063;39.614;8.814;2023-08-12T05:44:26;15.48;;;3.05;;
66270;SDS011;53063;39.614;8.814;2023-08-12T05:46:52;7.20;;;2.70;;
66270;SDS011;53063;39.614;8.814;2023-08-12T05:49:18;8.40;;;2.80;;
66270;SDS011;53063;39.614;8.814;2023-08-12T05:51:44;10.27;;;3.03;;
66270;SDS011;53063;39.614;8.814;2023-08-12T05:54:10;14.13;;;3.03;;
66270;SDS011;53063;39.614;8.814;2023-08-12T05:56:36;5.93;;;2.67;;
66270;SDS011;53063;39.614;8.814;2023-08-12T05:59:02;14.23;;;2.67;;
66270;SDS011;53063;39.614;8.814;2023-08-12T06:01:28;16.30;;;4.50;;
66270;SDS011;53063;39.614;8.814;2023-08-12T06:03:54;10.60;;;2.42;;
66270;SDS011;53063;39.614;8.814;2023-08-12T06:06:19;6.35;;;2.15;;
66270;SDS011;53063;39.614;8.814;2023-08-12T06:08:46;5.75;;;2.20;;
66270;SDS011;53063;39.614;8.814;2023-08-12T06:11:13;5.20;;;2.40;;
66270;SDS011;53063;39.614;8.814;2023-08-12T06:13:38;5.45;;;2.10;;
66270;SDS011;53063;39.614;8.814;2023-08-12T06:16:04;4.70;;;1.58;;
66270;SDS011;53063;39.614;8.814;2023-08-12T06:18:30;4.18;;;1.88;;
66270;SDS011;53063;39.614;8.814;2023-08-12T06:20:56;4.35;;;1.92;;
66270;SDS011;53063;39.614;8.814;2023-08-12T06:23:23;6.53;;;1.58;;
66270;SDS011;53063;39.614;8.814;2023-08-12T06:25:49;5.18;;;1.95;;
66270;SDS011;53063;39.614;8.814;2023-08-12T06:28:15;6.65;;;2.03;;
66270;SDS011;53063;39.614;8.814;2023-08-12T06:30:44;4.55;;;1.55;;
66270;SDS011;53063;39.614;8.814;2023-08-12T06:33:11;3.15;;;1.83;;
66270;SDS011;53063;39.614;8.814;2023-08-12T06:35:37;3.35;;;1.67;;
66270;SDS011;53063;39.614;8.814;2023-08-12T06:38:05;2.20;;;1.45;;
66270;SDS011;53063;39.614;8.814;2023-08-12T06:40:31;4.05;;;1.58;;
66270;SDS011;53063;39.614;8.814;2023-08-12T06:42:56;4.55;;;1.67;;
66270;SDS011;53063;39.614;8.814;2023-08-12T06:45:22;4.85;;;1.73;;
66270;SDS011;53063;39.614;8.814;2023-08-12T06:47:48;2.95;;;1.35;;
66270;SDS011;53063;39.614;8.814;2023-08-12T06:50:14;4.10;;;1.60;;
66270;SDS011;53063;39.614;8.814;2023-08-12T06:52:40;5.53;;;1.35;;
66270;SDS011;53063;39.614;8.814;2023-08-12T06:55:06;3.33;;;1.65;;
66270;SDS011;53063;39.614;8.814;2023-08-12T06:57:32;3.35;;;1.60;;
66270;SDS011;53063;39.614;8.814;2023-08-12T06:59:58;2.38;;;1.40;;
66270;SDS011;53063;39.614;8.814;2023-08-12T07:02:24;4.65;;;1.60;;
66270;SDS011;53063;39.614;8.814;2023-08-12T07:04:50;3.97;;;1.45;;
66270;SDS011;53063;39.614;8.814;2023-08-12T07:07:16;5.18;;;1.70;;
66270;SDS011;53063;39.614;8.814;2023-08-12T07:09:41;3.05;;;1.30;;
66270;SDS011;53063;39.614;8.814;2023-08-12T07:12:07;6.55;;;1.90;;
66270;SDS011;53063;39.614;8.814;2023-08-12T07:14:33;5.05;;;1.58;;
66270;SDS011;53063;39.614;8.814;2023-08-12T07:16:59;4.95;;;1.60;;
66270;SDS011;53063;39.614;8.814;2023-08-12T07:19:25;4.80;;;1.90;;
66270;SDS011;53063;39.614;8.814;2023-08-12T07:21:51;7.05;;;1.70;;
66270;SDS011;53063;39.614;8.814;2023-08-12T07:24:17;6.30;;;1.80;;
66270;SDS011;53063;39.614;8.814;2023-08-12T07:26:43;3.78;;;1.55;;
66270;SDS011;53063;39.614;8.814;2023-08-12T07:29:09;10.73;;;2.05;;
66270;SDS011;53063;39.614;8.814;2023-08-12T07:31:35;3.72;;;1.77;;
66270;SDS011;53063;39.614;8.814;2023-08-12T07:34:01;6.82;;;1.52;;
66270;SDS011;53063;39.614;8.814;2023-08-12T07:36:27;3.95;;;1.50;;
66270;SDS011;53063;39.614;8.814;2023-08-12T07:38:53;3.85;;;1.40;;
66270;SDS011;53063;39.614;8.814;2023-08-12T07:41:19;3.72;;;1.67;;
66270;SDS011;53063;39.614;8.814;2023-08-12T07:43:45;2.97;;;1.40;;
66270;SDS011;53063;39.614;8.814;2023-08-12T07:46:11;9.48;;;2.22;;
66270;SDS011;53063;39.614;8.814;2023-08-12T07:48:36;10.10;;;1.35;;
66270;SDS011;53063;39.614;8.814;2023-08-12T07:51:03;5.82;;;1.30;;
66270;SDS011;53063;39.614;8.814;2023-08-12T07:53:29;6.20;;;1.75;;
66270;SDS011;53063;39.614;8.814;2023-08-12T07:55:55;5.90;;;1.80;;
66270;SDS011;53063;39.614;8.814;2023-08-12T07:58:21;3.70;;;1.48;;
66270;SDS011;53063;39.614;8.814;2023-08-12T08:00:47;2.70;;;1.65;;
66270;SDS011;53063;39.614;8.814;2023-08-12T08:03:12;3.08;;;1.30;;
66270;SDS011;53063;39.614;8.814;2023-08-12T08:05:41;2.95;;;1.60;;
66270;SDS011;53063;39.614;8.814;2023-08-12T08:08:07;6.88;;;1.55;;
66270;SDS011;53063;39.614;8.814;2023-08-12T08:10:33;4.38;;;1.50;;
66270;SDS011;53063;39.614;8.814;2023-08-12T08:12:59;3.55;;;1.40;;
66270;SDS011;53063;39.614;8.814;2023-08-12T08:15:25;4.35;;;1.63;;
66270;SDS011;53063;39.614;8.814;2023-08-12T08:17:51;2.30;;;1.42;;
66270;SDS011;53063;39.614;8.814;2023-08-12T08:20:17;3.40;;;1.77;;
66270;SDS011;53063;39.614;8.814;2023-08-12T08:22:43;3.75;;;1.35;;
66270;SDS011;53063;39.614;8.814;2023-08-12T08:25:09;4.03;;;1.35;;
66270;SDS011;53063;39.614;8.814;2023-08-12T08:27:35;4.55;;;1.55;;
66270;SDS011;53063;39.614;8.814;2023-08-12T08:30:01;2.53;;;1.50;;
66270;SDS011;53063;39.614;8.814;2023-08-12T08:32:27;5.53;;;1.77;;
66270;SDS011;53063;39.614;8.814;2023-08-12T08:34:53;1.70;;;1.20;;
66270;SDS011;53063;39.614;8.814;2023-08-12T08:37:19;4.00;;;1.33;;
66270;SDS011;53063;39.614;8.814;2023-08-12T08:39:45;2.10;;;1.20;;
66270;SDS011;53063;39.614;8.814;2023-08-12T08:42:11;3.70;;;1.40;;
66270;SDS011;53063;39.614;8.814;2023-08-12T08:44:40;5.43;;;1.10;;
66270;SDS011;53063;39.614;8.814;2023-08-12T08:47:08;4.43;;;1.65;;
66270;SDS011;53063;39.614;8.814;2023-08-12T08:49:34;4.03;;;1.15;;
66270;SDS011;53063;39.614;8.814;2023-08-12T08:52:02;6.20;;;1.98;;
66270;SDS011;53063;39.614;8.814;2023-08-12T08:54:28;2.75;;;1.27;;
66270;SDS011;53063;39.614;8.814;2023-08-12T08:56:53;2.25;;;1.27;;
66270;SDS011;53063;39.614;8.814;2023-08-12T08:59:22;2.92;;;1.10;;
66270;SDS011;53063;39.614;8.814;2023-08-12T09:01:49;3.38;;;1.40;;
66270;SDS011;53063;39.614;8.814;2023-08-12T09:04:16;2.22;;;1.33;;
66270;SDS011;53063;39.614;8.814;2023-08-12T09:06:43;6.13;;;2.53;;
66270;SDS011;53063;39.614;8.814;2023-08-12T09:09:12;2.38;;;1.60;;
66270;SDS011;53063;39.614;8.814;2023-08-12T09:11:42;4.07;;;1.70;;
66270;SDS011;53063;39.614;8.814;2023-08-12T09:14:09;2.30;;;1.60;;
66270;SDS011;53063;39.614;8.814;2023-08-12T09:16:36;2.25;;;1.35;;
66270;SDS011;53063;39.614;8.814;2023-08-12T09:19:01;5.10;;;1.60;;
66270;SDS011;53063;39.614;8.814;2023-08-12T09:21:29;2.10;;;1.25;;
66270;SDS011;53063;39.614;8.814;2023-08-12T09:23:54;4.25;;;1.85;;
66270;SDS011;53063;39.614;8.814;2023-08-12T09:26:21;2.20;;;1.13;;
66270;SDS011;53063;39.614;8.814;2023-08-12T09:28:47;2.85;;;1.60;;
66270;SDS011;53063;39.614;8.814;2023-08-12T09:31:23;3.03;;;1.08;;
66270;SDS011;53063;39.614;8.814;2023-08-12T09:33:52;5.78;;;1.52;;
66270;SDS011;53063;39.614;8.814;2023-08-12T09:36:18;3.45;;;1.52;;
66270;SDS011;53063;39.614;8.814;2023-08-12T09:38:46;5.05;;;1.35;;
66270;SDS011;53063;39.614;8.814;2023-08-12T09:41:12;3.15;;;1.25;;
66270;SDS011;53063;39.614;8.814;2023-08-12T09:43:44;2.58;;;1.40;;
66270;SDS011;53063;39.614;8.814;2023-08-12T09:46:11;4.28;;;1.30;;
66270;SDS011;53063;39.614;8.814;2023-08-12T09:48:40;3.05;;;1.02;;
66270;SDS011;53063;39.614;8.814;2023-08-12T09:51:06;2.05;;;1.17;;
66270;SDS011;53063;39.614;8.814;2023-08-12T09:53:34;5.25;;;1.60;;
66270;SDS011;53063;39.614;8.814;2023-08-12T09:56:04;2.83;;;1.40;;
66270;SDS011;53063;39.614;8.814;2023-08-12T09:58:33;1.83;;;1.23;;
66270;SDS011;53063;39.614;8.814;2023-08-12T10:01:02;4.80;;;1.50;;
66270;SDS011;53063;39.614;8.814;2023-08-12T10:03:33;2.45;;;1.20;;
66270;SDS011;53063;39.614;8.814;2023-08-12T10:06:00;3.90;;;1.35;;
66270;SDS011;53063;39.614;8.814;2023-08-12T10:08:29;3.83;;;1.50;;
66270;SDS011;53063;39.614;8.814;2023-08-12T10:10:56;5.25;;;1.80;;
66270;SDS011;53063;39.614;8.814;2023-08-12T10:13:23;4.63;;;2.13;;
66270;SDS011;53063;39.614;8.814;2023-08-12T10:15:49;3.33;;;1.42;;
66270;SDS011;53063;39.614;8.814;2023-08-12T10:18:16;3.80;;;1.27;;
66270;SDS011;53063;39.614;8.814;2023-08-12T10:20:44;3.22;;;1.33;;
66270;SDS011;53063;39.614;8.814;2023-08-12T10:23:14;2.22;;;1.40;;
66270;SDS011;53063;39.614;8.814;2023-08-12T10:25:43;2.80;;;1.50;;
66270;SDS011;53063;39.614;8.814;2023-08-12T10:28:10;7.28;;;1.88;;
66270;SDS011;53063;39.614;8.814;2023-08-12T10:30:39;2.20;;;1.30;;
66270;SDS011;53063;39.614;8.814;2023-08-12T10:33:06;2.05;;;1.35;;
66270;SDS011;53063;39.614;8.814;2023-08-12T10:35:41;3.50;;;1.50;;
66270;SDS011;53063;39.614;8.814;2023-08-12T10:38:08;4.75;;;1.40;;
66270;SDS011;53063;39.614;8.814;2023-08-12T10:40:34;2.35;;;1.20;;
66270;SDS011;53063;39.614;8.814;2023-08-12T10:43:00;3.88;;;1.75;;
66270;SDS011;53063;39.614;8.814;2023-08-12T10:45:40;9.00;;;2.85;;
66270;SDS011;53063;39.614;8.814;2023-08-12T10:50:34;10.77;;;1.60;;
66270;SDS011;53063;39.614;8.814;2023-08-12T10:53:20;2.40;;;1.40;;
66270;SDS011;53063;39.614;8.814;2023-08-12T10:56:07;2.22;;;1.48;;
66270;SDS011;53063;39.614;8.814;2023-08-12T10:58:46;2.83;;;1.58;;
66270;SDS011;53063;39.614;8.814;2023-08-12T11:01:18;2.25;;;1.35;;
66270;SDS011;53063;39.614;8.814;2023-08-12T11:03:45;2.22;;;1.33;;
66270;SDS011;53063;39.614;8.814;2023-08-12T11:06:11;3.83;;;1.38;;
66270;SDS011;53063;39.614;8.814;2023-08-12T11:08:53;2.55;;;1.40;;
66270;SDS011;53063;39.614;8.814;2023-08-12T11:11:24;2.67;;;1.50;;
66270;SDS011;53063;39.614;8.814;2023-08-12T11:13:56;3.67;;;1.40;;
66270;SDS011;53063;39.614;8.814;2023-08-12T11:16:35;1.57;;;1.30;;
66270;SDS011;53063;39.614;8.814;2023-08-12T11:19:02;2.78;;;1.52;;
66270;SDS011;53063;39.614;8.814;2023-08-12T11:21:29;2.47;;;1.40;;
66270;SDS011;53063;39.614;8.814;2023-08-12T11:23:55;4.50;;;1.58;;
66270;SDS011;53063;39.614;8.814;2023-08-12T11:26:24;4.05;;;1.27;;
66270;SDS011;53063;39.614;8.814;2023-08-12T11:28:50;2.30;;;1.23;;
66270;SDS011;53063;39.614;8.814;2023-08-12T11:31:16;4.03;;;1.38;;
66270;SDS011;53063;39.614;8.814;2023-08-12T11:33:43;2.42;;;1.20;;
66270;SDS011;53063;39.614;8.814;2023-08-12T11:36:09;2.72;;;1.67;;
66270;SDS011;53063;39.614;8.814;2023-08-12T11:38:35;5.43;;;1.80;;
66270;SDS011;53063;39.614;8.814;2023-08-12T11:41:02;6.00;;;1.48;;
66270;SDS011;53063;39.614;8.814;2023-08-12T11:43:29;3.13;;;1.50;;
66270;SDS011;53063;39.614;8.814;2023-08-12T11:45:57;2.55;;;1.42;;
66270;SDS011;53063;39.614;8.814;2023-08-12T11:48:25;3.95;;;1.67;;
66270;SDS011;53063;39.614;8.814;2023-08-12T11:50:54;2.10;;;1.55;;
66270;SDS011;53063;39.614;8.814;2023-08-12T11:53:20;2.05;;;1.60;;
66270;SDS011;53063;39.614;8.814;2023-08-12T11:55:46;4.68;;;1.60;;
66270;SDS011;53063;39.614;8.814;2023-08-12T11:58:13;3.72;;;1.60;;
66270;SDS011;53063;39.614;8.814;2023-08-12T12:00:46;3.90;;;2.08;;
66270;SDS011;53063;39.614;8.814;2023-08-12T12:03:12;4.20;;;1.60;;
66270;SDS011;53063;39.614;8.814;2023-08-12T12:05:38;3.08;;;1.60;;
66270;SDS011;53063;39.614;8.814;2023-08-12T12:08:04;4.15;;;1.60;;
66270;SDS011;53063;39.614;8.814;2023-08-12T12:10:34;2.92;;;1.40;;
66270;SDS011;53063;39.614;8.814;2023-08-12T12:13:01;3.58;;;1.80;;
66270;SDS011;53063;39.614;8.814;2023-08-12T12:15:29;3.63;;;1.85;;
66270;SDS011;53063;39.614;8.814;2023-08-12T12:17:55;3.85;;;1.80;;
66270;SDS011;53063;39.614;8.814;2023-08-12T12:20:21;2.80;;;1.67;;
66270;SDS011;53063;39.614;8.814;2023-08-12T12:22:48;2.50;;;1.40;;
66270;SDS011;53063;39.614;8.814;2023-08-12T12:25:14;2.03;;;1.40;;
66270;SDS011;53063;39.614;8.814;2023-08-12T12:27:42;3.03;;;1.50;;
66270;SDS011;53063;39.614;8.814;2023-08-12T12:30:11;2.10;;;1.55;;
66270;SDS011;53063;39.614;8.814;2023-08-12T12:32:37;3.13;;;1.70;;
66270;SDS011;53063;39.614;8.814;2023-08-12T12:35:04;1.73;;;1.33;;
66270;SDS011;53063;39.614;8.814;2023-08-12T12:37:32;3.08;;;1.58;;
66270;SDS011;53063;39.614;8.814;2023-08-12T12:39:58;3.38;;;1.60;;
66270;SDS011;53063;39.614;8.814;2023-08-12T12:42:24;4.60;;;1.80;;
66270;SDS011;53063;39.614;8.814;2023-08-12T12:44:50;2.65;;;1.75;;
66270;SDS011;53063;39.614;8.814;2023-08-12T12:47:16;4.65;;;1.85;;
66270;SDS011;53063;39.614;8.814;2023-08-12T12:49:44;3.97;;;1.80;;
66270;SDS011;53063;39.614;8.814;2023-08-12T12:52:10;4.63;;;2.88;;
66270;SDS011;53063;39.614;8.814;2023-08-12T12:54:36;5.00;;;2.15;;
66270;SDS011;53063;39.614;8.814;2023-08-12T12:57:02;3.95;;;1.70;;
66270;SDS011;53063;39.614;8.814;2023-08-12T12:59:29;3.50;;;1.60;;
66270;SDS011;53063;39.614;8.814;2023-08-12T13:01:55;3.15;;;1.75;;
66270;SDS011;53063;39.614;8.814;2023-08-12T13:04:21;9.45;;;2.15;;
66270;SDS011;53063;39.614;8.814;2023-08-12T13:06:47;3.45;;;1.73;;
66270;SDS011;53063;39.614;8.814;2023-08-12T13:09:14;2.80;;;1.60;;
66270;SDS011;53063;39.614;8.814;2023-08-12T13:11:39;4.82;;;2.00;;
66270;SDS011;53063;39.614;8.814;2023-08-12T13:14:05;3.72;;;2.45;;
66270;SDS011;53063;39.614;8.814;2023-08-12T13:16:31;3.42;;;1.77;;
66270;SDS011;53063;39.614;8.814;2023-08-12T13:18:57;4.85;;;2.00;;
66270;SDS011;53063;39.614;8.814;2023-08-12T13:21:24;4.13;;;2.00;;
66270;SDS011;53063;39.614;8.814;2023-08-12T13:23:51;4.15;;;1.50;;
66270;SDS011;53063;39.614;8.814;2023-08-12T13:26:17;1.67;;;1.58;;
66270;SDS011;53063;39.614;8.814;2023-08-12T13:28:43;7.55;;;2.20;;
66270;SDS011;53063;39.614;8.814;2023-08-12T13:31:09;2.53;;;1.67;;
66270;SDS011;53063;39.614;8.814;2023-08-12T13:33:35;2.70;;;1.60;;
66270;SDS011;53063;39.614;8.814;2023-08-12T13:36:01;3.65;;;1.83;;
66270;SDS011;53063;39.614;8.814;2023-08-12T13:38:27;3.17;;;1.83;;
66270;SDS011;53063;39.614;8.814;2023-08-12T13:40:53;3.25;;;1.70;;
66270;SDS011;53063;39.614;8.814;2023-08-12T13:43:18;5.45;;;1.92;;
66270;SDS011;53063;39.614;8.814;2023-08-12T13:45:44;3.20;;;1.77;;
66270;SDS011;53063;39.614;8.814;2023-08-12T13:48:10;4.70;;;1.85;;
66270;SDS011;53063;39.614;8.814;2023-08-12T13:50:36;5.25;;;1.77;;
66270;SDS011;53063;39.614;8.814;2023-08-12T13:53:02;4.13;;;1.83;;
66270;SDS011;53063;39.614;8.814;2023-08-12T13:55:28;4.70;;;1.95;;
66270;SDS011;53063;39.614;8.814;2023-08-12T13:57:54;4.05;;;2.00;;
66270;SDS011;53063;39.614;8.814;2023-08-12T14:00:20;3.78;;;2.00;;
66270;SDS011;53063;39.614;8.814;2023-08-12T14:02:46;6.50;;;2.63;;
66270;SDS011;53063;39.614;8.814;2023-08-12T14:05:13;5.07;;;1.70;;
66270;SDS011;53063;39.614;8.814;2023-08-12T14:07:40;5.10;;;1.83;;
66270;SDS011;53063;39.614;8.814;2023-08-12T14:10:06;6.20;;;1.73;;
66270;SDS011;53063;39.614;8.814;2023-08-12T14:12:33;6.28;;;2.10;;
66270;SDS011;53063;39.614;8.814;2023-08-12T14:14:59;4.78;;;1.83;;
66270;SDS011;53063;39.614;8.814;2023-08-12T14:17:25;2.80;;;2.00;;
66270;SDS011;53063;39.614;8.814;2023-08-12T14:19:51;4.85;;;2.05;;
66270;SDS011;53063;39.614;8.814;2023-08-12T14:22:18;4.25;;;2.03;;
66270;SDS011;53063;39.614;8.814;2023-08-12T14:24:45;6.38;;;2.55;;
66270;SDS011;53063;39.614;8.814;2023-08-12T14:27:13;5.32;;;2.35;;
66270;SDS011;53063;39.614;8.814;2023-08-12T14:29:41;3.45;;;2.03;;
66270;SDS011;53063;39.614;8.814;2023-08-12T14:32:07;6.15;;;1.98;;
66270;SDS011;53063;39.614;8.814;2023-08-12T14:34:33;8.27;;;2.60;;
66270;SDS011;53063;39.614;8.814;2023-08-12T14:37:01;6.13;;;2.15;;
66270;SDS011;53063;39.614;8.814;2023-08-12T14:39:28;4.45;;;2.10;;
66270;SDS011;53063;39.614;8.814;2023-08-12T14:41:54;4.15;;;2.08;;
66270;SDS011;53063;39.614;8.814;2023-08-12T14:44:20;4.10;;;1.90;;
66270;SDS011;53063;39.614;8.814;2023-08-12T14:46:45;2.85;;;1.70;;
66270;SDS011;53063;39.614;8.814;2023-08-12T14:49:11;7.75;;;2.60;;
66270;SDS011;53063;39.614;8.814;2023-08-12T14:51:37;3.38;;;2.00;;